Time;durP1;ratioP1;P1;durP2;ratioP2;P2;SDS_P1;SDS_P2;PMS_P1;PMS_P2;Temp;Humidity;BMP_temperature;BMP_pressure;BME280_temperature;BME280_humidity;BME280_pressure;Samples;Min_cycle;Max_cycle;Signal;HPM_P1;HPM_P2
2023/04/09 00:01:31;;;;;;;194.65;83.78;;;8.60;99.90;;;;;;5031853;28;20026;-68
2023/04/09 00:03:57;;;;;;;181.82;82.90;;;8.60;99.90;;;;;;5033796;28;20021;-69
2023/04/09 00:06:22;;;;;;;187.00;84.20;;;8.60;99.90;;;;;;5033696;28;20029;-68
2023/04/09 00:08:48;;;;;;;198.15;85.30;;;8.60;99.90;;;;;;5033063;28;20125;-70
2023/04/09 00:11:13;;;;;;;183.85;82.55;;;8.60;99.90;;;;;;5033528;28;20391;-69
2023/04/09 00:13:39;;;;;;;182.60;83.35;;;8.60;99.90;;;;;;5033796;28;20034;-68
2023/04/09 00:16:04;;;;;;;184.15;82.43;;;8.60;99.90;;;;;;5031338;28;20130;-70
2023/04/09 00:18:30;;;;;;;182.57;83.30;;;8.60;99.90;;;;;;5033270;28;20026;-69
2023/04/09 00:20:55;;;;;;;184.57;81.57;;;8.60;99.90;;;;;;5033102;28;20510;-70
2023/04/09 00:23:21;;;;;;;185.07;80.82;;;8.60;99.90;;;;;;5033303;28;20047;-69
2023/04/09 00:25:47;;;;;;;180.18;81.45;;;8.60;99.90;;;;;;5033285;28;20711;-68
2023/04/09 00:28:13;;;;;;;186.13;82.25;;;8.60;99.90;;;;;;5030862;28;20106;-70
2023/04/09 00:30:38;;;;;;;188.90;82.22;;;8.60;99.90;;;;;;5032984;28;20065;-68
2023/04/09 00:33:04;;;;;;;181.32;80.15;;;8.60;99.90;;;;;;5033032;28;20043;-69
2023/04/09 00:35:30;;;;;;;189.63;82.78;;;8.60;99.90;;;;;;5032011;28;20109;-69
2023/04/09 00:37:56;;;;;;;196.77;82.47;;;8.60;99.90;;;;;;5033248;28;20029;-68
2023/04/09 00:40:21;;;;;;;192.68;82.43;;;8.60;99.90;;;;;;5032425;28;20483;-69
2023/04/09 00:42:47;;;;;;;192.18;79.25;;;8.50;99.90;;;;;;5033033;28;20030;-70
2023/04/09 00:45:12;;;;;;;194.88;80.60;;;8.60;99.90;;;;;;5033149;28;20093;-69
2023/04/09 00:47:38;;;;;;;182.48;81.70;;;8.60;99.90;;;;;;5032898;28;20029;-69
2023/04/09 00:50:04;;;;;;;167.70;77.00;;;8.60;99.90;;;;;;5032514;28;20042;-68
2023/04/09 00:52:31;;;;;;;182.85;78.82;;;8.60;99.90;;;;;;5032214;28;20022;-69
2023/04/09 00:55:00;;;;;;;180.73;80.00;;;8.60;99.90;;;;;;5030983;28;20049;-69
2023/04/09 00:57:27;;;;;;;189.10;80.65;;;8.60;99.90;;;;;;5032133;28;20029;-69
2023/04/09 00:59:53;;;;;;;176.63;80.93;;;8.50;99.90;;;;;;5032372;28;20044;-69
2023/04/09 01:02:18;;;;;;;179.50;78.28;;;8.50;99.90;;;;;;5032543;28;20026;-70
2023/04/09 01:04:45;;;;;;;175.90;75.32;;;8.50;99.90;;;;;;5032890;28;20113;-70
2023/04/09 01:07:23;;;;;;;187.32;80.25;;;8.50;99.90;;;;;;5032235;28;20018;-69
2023/04/09 01:10:04;;;;;;;180.85;80.38;;;8.50;99.90;;;;;;5032290;28;20057;-69
2023/04/09 01:12:40;;;;;;;180.18;79.05;;;8.50;99.90;;;;;;5032427;28;20036;-71
2023/04/09 01:15:12;;;;;;;183.27;77.70;;;8.40;99.90;;;;;;5032695;28;20632;-69
2023/04/09 01:17:49;;;;;;;197.52;80.10;;;8.40;99.90;;;;;;5032347;28;20410;-69
2023/04/09 01:20:27;;;;;;;186.52;81.75;;;8.40;99.90;;;;;;5032689;28;20017;-70
2023/04/09 01:23:24;;;;;;;181.88;79.88;;;8.40;99.90;;;;;;5030623;28;20022;-69
2023/04/09 01:26:10;;;;;;;193.52;84.18;;;8.40;99.90;;;;;;5032129;28;20107;-68
2023/04/09 01:28:42;;;;;;;191.20;84.05;;;8.40;99.90;;;;;;5030774;28;20033;-69
2023/04/09 01:31:16;;;;;;;182.40;82.68;;;8.40;99.90;;;;;;5032230;28;20100;-69
2023/04/09 01:33:43;;;;;;;196.40;84.47;;;8.30;99.90;;;;;;5032880;28;20033;-69
2023/04/09 01:36:09;;;;;;;178.75;83.05;;;8.40;99.90;;;;;;5031352;28;20038;-69
2023/04/09 01:38:38;;;;;;;198.48;87.75;;;8.40;99.90;;;;;;5031451;28;20077;-69
2023/04/09 01:41:07;;;;;;;203.23;88.43;;;8.30;99.90;;;;;;5032096;28;20018;-68
2023/04/09 01:43:33;;;;;;;209.57;93.32;;;8.40;99.90;;;;;;5030806;28;20037;-69
2023/04/09 01:46:01;;;;;;;201.35;92.40;;;8.40;99.90;;;;;;5031694;28;20033;-68
2023/04/09 01:48:28;;;;;;;222.23;97.15;;;8.40;99.90;;;;;;5031351;28;20018;-69
2023/04/09 01:50:54;;;;;;;213.23;93.78;;;8.40;99.90;;;;;;5031629;28;20034;-68
2023/04/09 01:53:21;;;;;;;201.25;90.85;;;8.40;99.90;;;;;;5033416;28;20025;-69
2023/04/09 01:55:47;;;;;;;216.45;94.35;;;8.40;99.90;;;;;;5035530;28;20022;-69
2023/04/09 01:58:12;;;;;;;202.32;88.60;;;8.40;99.90;;;;;;5036108;28;20041;-68
2023/04/09 02:00:44;;;;;;;200.98;88.38;;;8.30;99.90;;;;;;5036061;28;20429;-69
2023/04/09 02:03:22;;;;;;;198.55;89.93;;;8.30;99.90;;;;;;5036193;28;20080;-70
2023/04/09 02:06:06;;;;;;;197.82;88.40;;;8.30;99.90;;;;;;5034332;28;20041;-69
2023/04/09 02:08:33;;;;;;;;;;;8.30;99.90;;;;;;5035551;28;20538;-68
2023/04/09 02:11:02;;;;;;;210.55;93.57;;;8.30;99.90;;;;;;5035776;28;19921;-68
2023/04/09 02:13:29;;;;;;;201.02;88.70;;;8.30;99.90;;;;;;5035710;28;20067;-70
2023/04/09 02:15:57;;;;;;;201.43;89.72;;;8.30;99.90;;;;;;5035794;28;20022;-69
2023/04/09 02:18:26;;;;;;;210.82;88.82;;;8.20;99.90;;;;;;5034329;28;20028;-68
2023/04/09 02:20:53;;;;;;;204.70;90.25;;;8.20;99.90;;;;;;5034342;28;20025;-69
2023/04/09 02:23:19;;;;;;;220.20;93.03;;;8.20;99.90;;;;;;5035813;28;20039;-69
2023/04/09 02:25:44;;;;;;;204.63;87.68;;;8.20;99.90;;;;;;5035635;28;20041;-68
2023/04/09 02:28:10;;;;;;;195.52;91.22;;;8.20;99.90;;;;;;5034263;28;20028;-69
2023/04/09 02:30:35;;;;;;;223.85;96.38;;;8.30;99.90;;;;;;5035359;28;20056;-69
2023/04/09 02:33:01;;;;;;;214.45;95.38;;;8.20;99.90;;;;;;5033970;28;20054;-68
2023/04/09 02:35:26;;;;;;;212.57;94.82;;;8.20;99.90;;;;;;5033799;28;20044;-68
2023/04/09 02:37:52;;;;;;;218.23;94.90;;;8.20;99.90;;;;;;5035206;28;20105;-68
2023/04/09 02:40:18;;;;;;;216.60;95.00;;;8.20;99.90;;;;;;5035407;28;20037;-69
2023/04/09 02:42:43;;;;;;;213.43;92.53;;;8.20;99.90;;;;;;5035561;28;20029;-69
2023/04/09 02:45:10;;;;;;;211.30;92.10;;;8.20;99.90;;;;;;5035066;28;20030;-69
2023/04/09 02:47:35;;;;;;;200.93;88.72;;;8.20;99.90;;;;;;5034941;28;20418;-68
2023/04/09 02:50:01;;;;;;;195.52;87.28;;;8.20;99.90;;;;;;5035117;28;20409;-68
2023/04/09 02:52:26;;;;;;;191.90;85.50;;;8.20;99.90;;;;;;5035034;28;20068;-69
2023/04/09 02:54:52;;;;;;;192.05;82.80;;;8.20;99.90;;;;;;5034761;28;20093;-69
2023/04/09 02:57:18;;;;;;;183.07;77.65;;;8.20;99.90;;;;;;5033336;28;20029;-70
2023/04/09 02:59:45;;;;;;;176.80;77.05;;;8.20;99.90;;;;;;5034794;28;20041;-68
2023/04/09 03:02:11;;;;;;;176.52;76.43;;;8.20;99.90;;;;;;5034345;28;20030;-69
2023/04/09 03:04:37;;;;;;;169.40;74.25;;;8.30;99.90;;;;;;5034334;28;20018;-70
2023/04/09 03:07:03;;;;;;;178.88;76.10;;;8.20;99.90;;;;;;5034905;28;20032;-69
2023/04/09 03:09:29;;;;;;;183.70;76.35;;;8.10;99.90;;;;;;5034462;28;20128;-68
2023/04/09 03:11:56;;;;;;;173.05;77.45;;;8.10;99.90;;;;;;5034633;28;20034;-68
2023/04/09 03:14:22;;;;;;;173.00;76.22;;;8.10;99.90;;;;;;5034182;28;20045;-70
2023/04/09 03:16:48;;;;;;;169.27;72.90;;;8.10;99.90;;;;;;5034448;28;20030;-68
2023/04/09 03:19:13;;;;;;;165.65;74.22;;;8.10;99.90;;;;;;5033417;28;20067;-68
2023/04/09 03:21:39;;;;;;;158.48;67.45;;;8.10;99.90;;;;;;5034553;28;20036;-68
2023/04/09 03:24:05;;;;;;;155.93;65.72;;;8.10;99.90;;;;;;5033244;28;20097;-70
2023/04/09 03:26:35;;;;;;;146.25;64.90;;;8.00;99.90;;;;;;5034645;28;20028;-68
2023/04/09 03:29:05;;;;;;;160.13;66.00;;;8.00;99.90;;;;;;5034155;28;20017;-69
2023/04/09 03:31:31;;;;;;;165.70;68.95;;;8.00;99.90;;;;;;5034196;28;20056;-70
2023/04/09 03:33:56;;;;;;;155.98;64.43;;;8.00;99.90;;;;;;5034350;28;20084;-67
2023/04/09 03:36:22;;;;;;;155.55;65.30;;;8.00;99.90;;;;;;5034025;28;20022;-70
2023/04/09 03:38:48;;;;;;;155.55;67.47;;;8.00;99.90;;;;;;5034311;28;20025;-69
2023/04/09 03:41:14;;;;;;;153.82;66.22;;;8.00;99.90;;;;;;5034511;28;20064;-68
2023/04/09 03:43:40;;;;;;;152.77;62.45;;;8.00;99.90;;;;;;5032847;28;20006;-69
2023/04/09 03:46:12;;;;;;;153.82;68.03;;;8.00;99.90;;;;;;5031737;28;20032;-69
2023/04/09 03:48:38;;;;;;;156.30;63.22;;;8.00;99.90;;;;;;5032430;28;20030;-69
2023/04/09 03:51:03;;;;;;;147.52;63.40;;;8.00;99.90;;;;;;5031453;28;20033;-69
2023/04/09 03:53:29;;;;;;;157.13;65.72;;;8.00;99.90;;;;;;5032419;28;20022;-68
2023/04/09 03:55:55;;;;;;;167.13;68.80;;;8.00;99.90;;;;;;5031296;28;20021;-69
2023/04/09 03:58:20;;;;;;;172.02;71.03;;;7.90;99.90;;;;;;5032011;28;20018;-70
2023/04/09 04:00:47;;;;;;;171.88;72.93;;;7.90;99.90;;;;;;5032487;28;20425;-68
2023/04/09 04:03:14;;;;;;;166.93;72.07;;;7.90;99.90;;;;;;5031191;28;20427;-70
2023/04/09 04:05:40;;;;;;;157.38;67.22;;;7.90;99.90;;;;;;5032716;28;20068;-69
2023/04/09 04:08:06;;;;;;;160.00;67.93;;;7.80;99.90;;;;;;5031653;28;20493;-68
2023/04/09 04:10:33;;;;;;;143.35;60.08;;;7.90;99.90;;;;;;5031389;28;20045;-69
2023/04/09 04:13:00;;;;;;;146.73;60.45;;;7.90;99.90;;;;;;5030289;28;20386;-70
2023/04/09 04:15:27;;;;;;;121.30;54.22;;;7.90;99.90;;;;;;5030624;28;20526;-69
2023/04/09 04:17:52;;;;;;;126.40;52.70;;;7.90;99.90;;;;;;5031032;28;20050;-69
2023/04/09 04:20:18;;;;;;;124.40;53.00;;;7.90;99.90;;;;;;5028462;28;20034;-69
2023/04/09 04:22:43;;;;;;;116.07;50.22;;;7.90;99.90;;;;;;5030449;28;20037;-69
2023/04/09 04:25:09;;;;;;;117.40;51.65;;;7.90;99.90;;;;;;5030574;28;20017;-69
2023/04/09 04:27:35;;;;;;;105.47;46.58;;;7.90;99.90;;;;;;5031767;28;20760;-69
2023/04/09 04:30:01;;;;;;;95.57;41.70;;;7.90;99.90;;;;;;5031439;28;20081;-69
2023/04/09 04:32:27;;;;;;;75.72;35.30;;;7.90;99.90;;;;;;5031620;28;20018;-70
2023/04/09 04:34:52;;;;;;;83.47;37.80;;;7.90;99.90;;;;;;5031600;28;20026;-69
2023/04/09 04:37:18;;;;;;;80.85;37.03;;;7.90;99.90;;;;;;5030184;28;20129;-70
2023/04/09 04:39:44;;;;;;;71.80;32.33;;;7.90;99.90;;;;;;5031451;28;20030;-70
2023/04/09 04:42:09;;;;;;;77.30;33.45;;;7.90;99.90;;;;;;5029795;28;20041;-70
2023/04/09 04:44:35;;;;;;;72.90;32.80;;;7.90;99.90;;;;;;5033353;28;20117;-69
2023/04/09 04:47:00;;;;;;;66.35;30.60;;;7.90;99.90;;;;;;5032711;28;20030;-70
2023/04/09 04:49:26;;;;;;;62.30;29.50;;;7.90;99.90;;;;;;5033049;28;20033;-69
2023/04/09 04:51:51;;;;;;;59.97;29.20;;;7.90;99.90;;;;;;5032854;28;20034;-68
2023/04/09 04:54:17;;;;;;;52.97;26.10;;;7.90;99.90;;;;;;5031262;28;20026;-69
2023/04/09 04:56:43;;;;;;;55.20;26.50;;;7.90;99.90;;;;;;5030244;28;20040;-68
2023/04/09 04:59:08;;;;;;;57.53;26.38;;;8.00;99.90;;;;;;5032858;28;20139;-68
2023/04/09 05:01:34;;;;;;;62.55;29.20;;;8.00;99.90;;;;;;5032436;28;21161;-69
2023/04/09 05:04:02;;;;;;;60.25;27.58;;;8.00;99.90;;;;;;5032757;28;20017;-68
2023/04/09 05:06:28;;;;;;;61.90;30.20;;;8.00;99.90;;;;;;5032383;28;20034;-69
2023/04/09 05:08:56;;;;;;;68.00;30.55;;;8.10;99.90;;;;;;5030670;28;20042;-70
2023/04/09 05:11:25;;;;;;;70.22;28.65;;;8.10;99.90;;;;;;5032060;28;20037;-70
2023/04/09 05:13:51;;;;;;;62.30;29.30;;;8.10;99.90;;;;;;5031864;28;20052;-70
2023/04/09 05:16:17;;;;;;;62.58;28.52;;;8.10;99.90;;;;;;5031051;28;20061;-70
2023/04/09 05:18:43;;;;;;;58.55;27.48;;;8.10;99.90;;;;;;5031021;28;20045;-71
2023/04/09 05:21:09;;;;;;;59.97;28.17;;;8.10;99.90;;;;;;5030484;28;20061;-70
2023/04/09 05:23:34;;;;;;;58.15;28.08;;;8.10;99.90;;;;;;5031880;28;20021;-70
2023/04/09 05:26:00;;;;;;;57.67;26.65;;;8.10;99.90;;;;;;5032352;28;20025;-70
2023/04/09 05:28:25;;;;;;;57.53;27.15;;;8.10;99.90;;;;;;5031894;28;20478;-69
2023/04/09 05:30:51;;;;;;;54.85;26.88;;;8.10;99.90;;;;;;5031621;28;20041;-71
2023/04/09 05:33:17;;;;;;;55.88;26.80;;;8.10;99.90;;;;;;5032224;28;21378;-69
2023/04/09 05:35:42;;;;;;;56.58;25.73;;;8.20;99.90;;;;;;5032800;28;20032;-70
2023/04/09 05:38:08;;;;;;;59.88;28.67;;;8.20;99.90;;;;;;5023136;28;20080;-69
2023/04/09 05:40:34;;;;;;;63.58;30.10;;;8.20;99.90;;;;;;5031252;28;20076;-69
2023/04/09 05:43:00;;;;;;;64.63;29.52;;;8.20;99.90;;;;;;5031482;28;20018;-70
2023/04/09 05:45:27;;;;;;;68.78;32.55;;;8.20;99.90;;;;;;5031837;28;20383;-70
2023/04/09 05:47:53;;;;;;;69.93;33.08;;;8.30;99.90;;;;;;5027821;28;20177;-69
2023/04/09 05:50:20;;;;;;;73.90;34.30;;;8.30;99.90;;;;;;5026938;28;20152;-72
2023/04/09 05:52:45;;;;;;;80.47;35.30;;;8.30;99.90;;;;;;5016179;28;20053;-69
2023/04/09 05:55:11;;;;;;;85.05;37.45;;;8.40;99.90;;;;;;5047152;28;20076;-70
2023/04/09 05:57:37;;;;;;;85.40;38.38;;;8.40;99.90;;;;;;5032167;28;20029;-69
2023/04/09 06:00:03;;;;;;;83.32;36.47;;;8.40;99.90;;;;;;5030485;28;20057;-69
2023/04/09 06:02:28;;;;;;;78.05;34.17;;;8.40;99.90;;;;;;5031871;28;20037;-69
2023/04/09 06:04:54;;;;;;;70.60;33.20;;;8.50;99.90;;;;;;5032149;28;20030;-70
2023/04/09 06:07:20;;;;;;;73.03;31.95;;;8.50;99.90;;;;;;5031291;28;20038;-71
2023/04/09 06:09:45;;;;;;;71.60;32.85;;;8.50;99.90;;;;;;5031650;28;20049;-69
2023/04/09 06:12:12;;;;;;;76.15;32.63;;;8.60;99.90;;;;;;5032037;28;20033;-70
2023/04/09 06:14:38;;;;;;;73.50;31.83;;;8.60;99.90;;;;;;5027233;28;20036;-71
2023/04/09 06:17:04;;;;;;;73.80;33.38;;;8.60;99.90;;;;;;5030896;28;20057;-71
2023/04/09 06:19:30;;;;;;;71.07;31.40;;;8.60;99.90;;;;;;5029716;28;20022;-70
2023/04/09 06:21:55;;;;;;;76.20;32.45;;;8.60;99.90;;;;;;5030213;28;20026;-69
2023/04/09 06:24:21;;;;;;;82.03;35.50;;;8.60;99.90;;;;;;5025282;28;20030;-69
2023/04/09 06:26:47;;;;;;;86.97;37.88;;;8.60;99.90;;;;;;5030316;28;20058;-70
2023/04/09 06:29:12;;;;;;;90.07;36.40;;;8.60;99.90;;;;;;5030353;28;20375;-71
2023/04/09 06:31:38;;;;;;;90.43;36.50;;;8.60;99.90;;;;;;5031118;28;20549;-69
2023/04/09 06:34:04;;;;;;;91.75;37.55;;;8.60;99.90;;;;;;5031835;28;20032;-71
2023/04/09 06:36:29;;;;;;;83.93;36.10;;;8.70;99.90;;;;;;5031616;28;20026;-70
2023/04/09 06:38:55;;;;;;;83.43;36.63;;;8.70;99.90;;;;;;5032397;28;20034;-71
2023/04/09 06:41:22;;;;;;;88.80;37.28;;;8.70;99.90;;;;;;5035572;28;20056;-69
2023/04/09 06:43:48;;;;;;;87.75;37.90;;;8.70;99.90;;;;;;5035236;28;20040;-70
2023/04/09 06:46:16;;;;;;;87.43;38.03;;;8.70;99.90;;;;;;5035140;28;20105;-71
2023/04/09 06:48:43;;;;;;;88.18;38.58;;;8.70;99.90;;;;;;5034553;28;20073;-70
2023/04/09 06:51:09;;;;;;;84.43;38.05;;;8.80;99.90;;;;;;5034702;28;20069;-71
2023/04/09 06:53:36;;;;;;;82.70;39.03;;;8.80;99.90;;;;;;5035022;28;20027;-70
2023/04/09 06:56:01;;;;;;;84.45;36.67;;;8.90;99.90;;;;;;5034298;28;20029;-69
2023/04/09 06:58:27;;;;;;;85.25;35.80;;;9.00;99.90;;;;;;5034747;28;20580;-71
2023/04/09 07:00:53;;;;;;;83.10;35.85;;;9.10;99.90;;;;;;5035045;28;20029;-72
2023/04/09 07:03:18;;;;;;;80.80;37.45;;;9.10;99.90;;;;;;5034753;28;20064;-70
2023/04/09 07:05:44;;;;;;;84.05;37.10;;;9.10;99.90;;;;;;5033387;28;20161;-69
2023/04/09 07:08:10;;;;;;;80.40;36.67;;;9.10;99.90;;;;;;5033949;28;20050;-70
2023/04/09 07:10:36;;;;;;;81.38;35.40;;;9.10;99.90;;;;;;5034701;28;20030;-70
2023/04/09 07:13:02;;;;;;;75.18;33.25;;;9.20;99.90;;;;;;5034675;28;20025;-70
2023/04/09 07:15:27;;;;;;;72.40;33.72;;;9.30;99.90;;;;;;5034655;28;20379;-70
2023/04/09 07:17:53;;;;;;;62.38;28.17;;;9.30;99.90;;;;;;5034390;28;20095;-71
2023/04/09 07:20:18;;;;;;;57.13;25.65;;;9.40;99.90;;;;;;5034584;28;20026;-71
2023/04/09 07:22:44;;;;;;;68.50;32.25;;;9.40;99.90;;;;;;5033421;28;20021;-69
2023/04/09 07:25:09;;;;;;;64.22;30.42;;;9.30;99.90;;;;;;5031533;28;20036;-69
2023/04/09 07:27:35;;;;;;;51.47;24.23;;;9.40;99.90;;;;;;5032146;28;20052;-71
2023/04/09 07:30:02;;;;;;;53.45;25.23;;;9.40;99.90;;;;;;5033710;28;20034;-71
2023/04/09 07:32:27;;;;;;;52.42;24.10;;;9.40;99.90;;;;;;5032713;28;20078;-71
2023/04/09 07:34:54;;;;;;;54.22;25.38;;;9.40;99.90;;;;;;5033779;28;20021;-70
2023/04/09 07:37:20;;;;;;;68.15;29.98;;;9.40;99.90;;;;;;5033662;28;20095;-70
2023/04/09 07:39:46;;;;;;;57.30;28.27;;;9.40;99.90;;;;;;5034105;28;20048;-70
2023/04/09 07:42:12;;;;;;;56.10;27.45;;;9.40;99.90;;;;;;5033725;28;20029;-70
2023/04/09 07:44:38;;;;;;;55.20;28.05;;;9.50;99.90;;;;;;5034461;28;20018;-69
2023/04/09 07:47:05;;;;;;;64.22;29.65;;;9.50;99.90;;;;;;5032344;28;20049;-69
2023/04/09 07:49:31;;;;;;;55.20;26.55;;;9.50;99.90;;;;;;5033334;28;20022;-69
2023/04/09 07:51:58;;;;;;;55.17;26.75;;;9.50;99.90;;;;;;5032670;28;20038;-69
2023/04/09 07:54:23;;;;;;;53.88;26.92;;;9.50;99.90;;;;;;5033236;28;20022;-70
2023/04/09 07:56:50;;;;;;;54.28;27.38;;;9.50;99.90;;;;;;5032623;28;20056;-69
2023/04/09 07:59:15;;;;;;;53.88;26.88;;;9.50;99.90;;;;;;5033871;28;20115;-72
2023/04/09 08:01:42;;;;;;;55.05;26.65;;;9.50;99.90;;;;;;5033640;28;20026;-69
2023/04/09 08:04:08;;;;;;;56.20;25.63;;;9.70;99.90;;;;;;5031539;28;20026;-70
2023/04/09 08:06:34;;;;;;;53.55;25.48;;;9.70;99.90;;;;;;5025962;28;20049;-68
2023/04/09 08:09:00;;;;;;;53.35;24.75;;;9.80;99.90;;;;;;5027376;28;20054;-70
2023/04/09 08:11:26;;;;;;;45.05;23.40;;;9.90;99.90;;;;;;5033587;28;20037;-69
2023/04/09 08:13:52;;;;;;;44.55;22.27;;;10.00;99.90;;;;;;5028609;28;20084;-70
2023/04/09 08:16:17;;;;;;;49.25;25.85;;;10.10;99.90;;;;;;5029134;28;20030;-69
2023/04/09 08:18:43;;;;;;;49.50;22.83;;;10.20;99.90;;;;;;5030218;28;20045;-70
2023/04/09 08:21:08;;;;;;;44.28;23.77;;;10.30;99.90;;;;;;5032920;28;20052;-70
2023/04/09 08:23:34;;;;;;;43.70;23.30;;;10.30;99.90;;;;;;5031840;28;20076;-70
2023/04/09 08:26:00;;;;;;;40.95;22.42;;;10.30;99.90;;;;;;5030267;28;20049;-70
2023/04/09 08:28:26;;;;;;;42.50;20.63;;;10.40;99.90;;;;;;5032065;28;20113;-69
2023/04/09 08:30:51;;;;;;;42.53;22.73;;;10.50;99.90;;;;;;5032309;28;20574;-72
2023/04/09 08:33:17;;;;;;;45.38;21.88;;;10.50;99.90;;;;;;5030562;28;20041;-69
2023/04/09 08:35:43;;;;;;;45.65;22.77;;;10.50;99.90;;;;;;5026584;28;20101;-69
2023/04/09 08:38:08;;;;;;;43.75;22.48;;;10.60;99.90;;;;;;5030741;28;20083;-69
2023/04/09 08:40:35;;;;;;;41.50;22.88;;;10.90;99.90;;;;;;5029390;28;20044;-69
2023/04/09 08:43:05;;;;;;;45.40;24.05;;;11.10;99.90;;;;;;5030303;28;20021;-69
2023/04/09 08:45:31;;;;;;;44.45;23.25;;;11.20;99.90;;;;;;5028329;28;20029;-68
2023/04/09 08:48:02;;;;;;;42.50;22.52;;;11.30;99.90;;;;;;5026732;28;20072;-70
2023/04/09 08:50:29;;;;;;;42.10;21.88;;;11.50;99.90;;;;;;5029160;28;20105;-70
2023/04/09 08:52:57;;;;;;;40.17;21.60;;;11.80;99.90;;;;;;5030075;28;20013;-68
2023/04/09 08:55:23;;;;;;;43.15;22.67;;;12.10;99.90;;;;;;5028931;28;20040;-69
2023/04/09 08:57:48;;;;;;;41.67;22.90;;;12.10;99.90;;;;;;5031892;28;20053;-69
2023/04/09 09:00:14;;;;;;;38.90;21.95;;;12.20;99.90;;;;;;5029821;28;20113;-69
2023/04/09 09:03:01;;;;;;;37.75;22.50;;;12.30;99.90;;;;;;5031306;28;20037;-68
2023/04/09 09:05:41;;;;;;;41.08;22.67;;;12.40;99.90;;;;;;5043514;28;20022;-67
2023/04/09 09:08:08;;;;;;;42.60;22.05;;;12.50;99.90;;;;;;5029637;28;20481;-68
2023/04/09 09:10:44;;;;;;;42.60;23.75;;;12.80;99.90;;;;;;5031417;28;20063;-68
2023/04/09 09:13:26;;;;;;;38.58;21.65;;;13.00;99.90;;;;;;5047265;28;20038;-69
2023/04/09 09:15:55;;;;;;;40.22;22.50;;;12.90;99.90;;;;;;5032559;28;20051;-69
2023/04/09 09:18:38;;;;;;;46.65;25.25;;;12.70;99.90;;;;;;5032928;28;20026;-70
2023/04/09 09:21:16;;;;;;;44.88;24.50;;;12.50;99.90;;;;;;5031922;28;20025;-69
2023/04/09 09:23:42;;;;;;;41.67;23.25;;;12.40;99.90;;;;;;5031414;28;20088;-70
2023/04/09 09:26:20;;;;;;;40.55;23.88;;;12.60;99.90;;;;;;5031689;28;20486;-69
2023/04/09 09:28:47;;;;;;;46.35;24.73;;;12.70;99.90;;;;;;5031225;28;20033;-70
2023/04/09 09:31:14;;;;;;;41.78;22.98;;;12.60;99.90;;;;;;5029283;28;20041;-70
2023/04/09 09:33:40;;;;;;;38.13;21.83;;;12.60;99.90;;;;;;5032407;28;20021;-70
2023/04/09 09:36:08;;;;;;;38.25;21.83;;;12.80;99.90;;;;;;5032295;28;20026;-68
2023/04/09 09:38:53;;;;;;;39.20;21.55;;;13.00;99.90;;;;;;5029061;28;20034;-70
2023/04/09 09:41:19;;;;;;;40.25;22.48;;;13.10;99.90;;;;;;5028728;28;20031;-71
2023/04/09 09:43:45;;;;;;;41.17;22.17;;;13.30;99.90;;;;;;5031315;28;20021;-69
2023/04/09 09:46:11;;;;;;;40.17;22.08;;;13.30;99.90;;;;;;5030745;28;20022;-70
2023/04/09 09:48:37;;;;;;;42.08;23.30;;;13.20;99.90;;;;;;5028134;28;20029;-70
2023/04/09 09:51:08;;;;;;;36.38;22.27;;;13.00;99.90;;;;;;5029686;28;20048;-69
2023/04/09 09:53:35;;;;;;;39.33;23.08;;;12.90;99.90;;;;;;5031480;28;20022;-69
2023/04/09 09:56:04;;;;;;;39.83;23.00;;;12.90;99.90;;;;;;5031563;28;20030;-71
2023/04/09 09:58:42;;;;;;;35.85;21.85;;;12.90;99.90;;;;;;5030904;28;20021;-68
2023/04/09 10:01:11;;;;;;;40.08;22.90;;;12.90;99.90;;;;;;5028542;28;20044;-71
2023/04/09 10:03:38;;;;;;;37.85;22.02;;;13.10;99.90;;;;;;5029413;28;20029;-70
2023/04/09 10:06:06;;;;;;;38.25;22.92;;;13.30;99.90;;;;;;5024411;28;20041;-70
2023/04/09 10:08:33;;;;;;;35.40;21.15;;;13.60;99.90;;;;;;5026646;28;20049;-72
2023/04/09 10:11:00;;;;;;;38.85;21.92;;;14.00;99.90;;;;;;5031295;28;20496;-70
2023/04/09 10:13:34;;;;;;;36.80;21.02;;;14.20;99.90;;;;;;5031491;28;20034;-69
2023/04/09 10:16:00;;;;;;;34.95;20.85;;;14.30;99.90;;;;;;5035800;28;20017;-70
2023/04/09 10:18:27;;;;;;;36.75;22.30;;;14.60;99.90;;;;;;5034618;28;20029;-68
2023/04/09 10:20:58;;;;;;;34.78;21.23;;;14.90;99.90;;;;;;5035788;28;20049;-69
2023/04/09 10:23:36;;;;;;;35.40;22.30;;;15.10;99.90;;;;;;5034940;28;20040;-70
2023/04/09 10:26:03;;;;;;;34.92;21.90;;;14.90;99.90;;;;;;5035658;28;20022;-71
2023/04/09 10:28:28;;;;;;;34.50;22.05;;;14.90;99.90;;;;;;5035656;28;20026;-70
2023/04/09 10:30:54;;;;;;;34.47;21.60;;;14.90;99.90;;;;;;5032158;28;20060;-70
2023/04/09 10:33:28;;;;;;;33.42;19.20;;;15.20;99.90;;;;;;5031773;28;20022;-70
2023/04/09 10:35:58;;;;;;;30.00;18.90;;;15.40;99.90;;;;;;5032461;28;20025;-70
2023/04/09 10:38:37;;;;;;;31.77;19.60;;;15.40;99.90;;;;;;5031121;28;20030;-70
2023/04/09 10:41:15;;;;;;;32.40;21.25;;;15.50;99.90;;;;;;5028771;28;20573;-70
2023/04/09 10:43:41;;;;;;;32.13;20.42;;;15.60;99.90;;;;;;5029846;28;20033;-69
2023/04/09 10:46:32;;;;;;;32.05;20.10;;;15.80;99.90;;;;;;5032022;28;20045;-70
2023/04/09 10:49:10;;;;;;;33.65;20.33;;;16.10;99.90;;;;;;5034969;28;20030;-71
2023/04/09 10:51:40;;;;;;;32.33;20.50;;;16.50;99.90;;;;;;5035185;28;20042;-69
2023/04/09 10:54:32;;;;;;;30.60;19.48;;;16.80;99.90;;;;;;5034975;28;20081;-70
2023/04/09 10:57:06;;;;;;;31.15;20.83;;;17.00;99.90;;;;;;5032937;28;20056;-71
2023/04/09 10:59:42;;;;;;;32.60;20.05;;;17.00;99.90;;;;;;5032824;28;20033;-71
2023/04/09 11:02:18;;;;;;;32.53;21.42;;;16.80;99.90;;;;;;5033971;28;20037;-69
2023/04/09 11:04:55;;;;;;;32.70;20.80;;;16.70;99.90;;;;;;5032592;28;20033;-70
2023/04/09 11:07:23;;;;;;;30.85;20.98;;;16.70;99.90;;;;;;5034405;28;20021;-72
2023/04/09 11:09:49;;;;;;;28.45;20.17;;;16.50;99.90;;;;;;5032450;28;20189;-70
2023/04/09 11:12:15;;;;;;;33.25;20.50;;;16.40;99.90;;;;;;5033027;28;20033;-70
2023/04/09 11:14:41;;;;;;;31.08;19.75;;;16.30;99.90;;;;;;5034294;28;20021;-69
2023/04/09 11:17:06;;;;;;;27.20;18.13;;;16.60;99.90;;;;;;5033938;28;20572;-70
2023/04/09 11:19:33;;;;;;;29.38;18.20;;;16.90;99.90;;;;;;5034034;28;20052;-71
2023/04/09 11:21:58;;;;;;;28.80;18.58;;;17.00;99.90;;;;;;5032213;28;20028;-71
2023/04/09 11:24:24;;;;;;;32.88;18.83;;;16.90;99.90;;;;;;5033092;28;20038;-71
2023/04/09 11:26:50;;;;;;;29.65;19.42;;;16.70;99.90;;;;;;5032667;28;20025;-70
2023/04/09 11:29:15;;;;;;;29.35;19.63;;;16.50;99.90;;;;;;5033470;28;20021;-70
2023/04/09 11:31:44;;;;;;;28.55;18.83;;;16.60;99.90;;;;;;5030861;28;20034;-70
2023/04/09 11:34:13;;;;;;;28.67;18.10;;;16.50;99.90;;;;;;5032326;28;20048;-70
2023/04/09 11:36:39;;;;;;;28.08;18.98;;;16.70;99.90;;;;;;5033499;28;20009;-71
2023/04/09 11:39:05;;;;;;;30.70;19.40;;;17.00;99.90;;;;;;5033495;28;20021;-68
2023/04/09 11:41:35;;;;;;;28.13;18.70;;;17.40;99.90;;;;;;5032495;28;20586;-72
2023/04/09 11:44:05;;;;;;;28.38;19.20;;;17.80;99.90;;;;;;5033171;28;20034;-72
2023/04/09 11:46:32;;;;;;;28.48;18.65;;;18.00;99.90;;;;;;5032687;28;20048;-70
2023/04/09 11:48:58;;;;;;;27.42;19.52;;;18.30;99.90;;;;;;5032996;28;20028;-69
2023/04/09 11:51:25;;;;;;;27.55;18.70;;;18.00;99.90;;;;;;5033498;28;20494;-70
2023/04/09 11:53:52;;;;;;;27.92;17.75;;;17.90;99.90;;;;;;5033095;28;20082;-71
2023/04/09 11:56:18;;;;;;;27.30;17.63;;;17.90;99.90;;;;;;5031653;28;20037;-72
2023/04/09 11:58:47;;;;;;;25.33;16.95;;;17.80;99.90;;;;;;5032299;28;20025;-71
2023/04/09 12:01:14;;;;;;;25.40;18.08;;;17.80;99.90;;;;;;5033538;28;20091;-69
2023/04/09 12:03:40;;;;;;;29.20;18.77;;;17.30;99.90;;;;;;5032841;28;20026;-70
2023/04/09 12:06:06;;;;;;;27.33;18.50;;;17.20;99.90;;;;;;5029628;28;20076;-69
2023/04/09 12:08:36;;;;;;;27.00;18.15;;;17.30;99.90;;;;;;5031674;28;20105;-69
2023/04/09 12:11:14;;;;;;;26.92;16.63;;;17.50;99.90;;;;;;5031413;28;20576;-71
2023/04/09 12:13:43;;;;;;;27.20;17.08;;;17.90;99.90;;;;;;5031684;28;20066;-71
2023/04/09 12:16:10;;;;;;;27.80;18.40;;;17.90;99.90;;;;;;5031956;28;20045;-70
2023/04/09 12:18:37;;;;;;;25.20;16.95;;;18.10;99.90;;;;;;5029799;28;20494;-72
2023/04/09 12:21:03;;;;;;;25.60;17.35;;;18.40;99.90;;;;;;5031342;28;20026;-70
2023/04/09 12:23:30;;;;;;;24.40;17.45;;;18.50;99.90;;;;;;5032276;28;20025;-71
2023/04/09 12:25:58;;;;;;;25.33;17.55;;;18.50;99.90;;;;;;5031514;28;20053;-69
2023/04/09 12:28:24;;;;;;;27.20;17.92;;;18.60;99.90;;;;;;5029084;28;20037;-69
2023/04/09 12:30:50;;;;;;;23.77;16.65;;;18.80;99.90;;;;;;5029482;28;20040;-71
2023/04/09 12:33:16;;;;;;;25.20;17.10;;;18.80;99.90;;;;;;5031199;28;20421;-69